Terminal Aerodrome Forecast
Issued by NWS

Home | Current Version | Previous Version | Graphics & Text | Print | Product List | Glossary On
Versions: 1 2 3 4 5 6 7 8 9 10 11 12 13 14 15
000
FTUS43 KIWX 221122
TAFSBN
TAF
KSBN 221122Z 2212/2312 21005KT 5SM BR BKN035
      TEMPO 2212/2215 2SM BR BKN010
     FM221500 20011KT P6SM BKN015
     FM222000 20012KT P6SM SCT025
     FM230600 24008KT 4SM BR BKN020=

USA.gov is the U.S. government's official web portal to all federal, state and local government web resources and services.